sensor_id;sensor_type;location;lat;lon;timestamp;P1;durP1;ratioP1;P2;durP2;ratioP2
80852;SDS011;70270;43.434;28.338;2023-11-22T00:01:40;26.67;;;12.57;;
80852;SDS011;70270;43.434;28.338;2023-11-22T00:04:25;20.27;;;13.20;;
80852;SDS011;70270;43.434;28.338;2023-11-22T00:07:10;18.60;;;12.30;;
80852;SDS011;70270;43.434;28.338;2023-11-22T00:09:55;15.68;;;12.48;;
80852;SDS011;70270;43.434;28.338;2023-11-22T00:12:40;20.63;;;12.85;;
80852;SDS011;70270;43.434;28.338;2023-11-22T00:15:25;19.83;;;12.38;;
80852;SDS011;70270;43.434;28.338;2023-11-22T00:18:09;19.15;;;12.38;;
80852;SDS011;70270;43.434;28.338;2023-11-22T00:20:54;22.20;;;12.25;;
80852;SDS011;70270;43.434;28.338;2023-11-22T00:23:39;21.88;;;15.45;;
80852;SDS011;70270;43.434;28.338;2023-11-22T00:26:23;21.35;;;12.23;;
80852;SDS011;70270;43.434;28.338;2023-11-22T00:29:13;17.55;;;12.50;;
80852;SDS011;70270;43.434;28.338;2023-11-22T00:31:58;22.45;;;12.95;;
80852;SDS011;70270;43.434;28.338;2023-11-22T00:34:43;23.17;;;12.38;;
80852;SDS011;70270;43.434;28.338;2023-11-22T00:37:28;23.67;;;12.70;;
80852;SDS011;70270;43.434;28.338;2023-11-22T00:40:14;22.13;;;12.40;;
80852;SDS011;70270;43.434;28.338;2023-11-22T00:42:58;20.58;;;12.68;;
80852;SDS011;70270;43.434;28.338;2023-11-22T00:45:43;25.15;;;13.02;;
80852;SDS011;70270;43.434;28.338;2023-11-22T00:48:28;24.98;;;13.95;;
80852;SDS011;70270;43.434;28.338;2023-11-22T00:51:12;23.00;;;13.55;;
80852;SDS011;70270;43.434;28.338;2023-11-22T00:53:57;25.77;;;14.63;;
80852;SDS011;70270;43.434;28.338;2023-11-22T00:56:42;21.05;;;13.43;;
80852;SDS011;70270;43.434;28.338;2023-11-22T00:59:27;20.77;;;13.93;;
80852;SDS011;70270;43.434;28.338;2023-11-22T01:02:13;25.67;;;14.27;;
80852;SDS011;70270;43.434;28.338;2023-11-22T01:04:58;31.02;;;14.50;;
80852;SDS011;70270;43.434;28.338;2023-11-22T01:07:43;29.70;;;13.90;;
80852;SDS011;70270;43.434;28.338;2023-11-22T01:10:27;26.98;;;13.90;;
80852;SDS011;70270;43.434;28.338;2023-11-22T01:13:12;25.73;;;14.15;;
80852;SDS011;70270;43.434;28.338;2023-11-22T01:15:58;31.77;;;15.52;;
80852;SDS011;70270;43.434;28.338;2023-11-22T01:18:43;26.45;;;15.30;;
80852;SDS011;70270;43.434;28.338;2023-11-22T01:21:30;25.02;;;14.07;;
80852;SDS011;70270;43.434;28.338;2023-11-22T01:24:15;33.70;;;15.60;;
80852;SDS011;70270;43.434;28.338;2023-11-22T01:27:00;22.77;;;15.25;;
80852;SDS011;70270;43.434;28.338;2023-11-22T01:29:44;20.25;;;14.65;;
80852;SDS011;70270;43.434;28.338;2023-11-22T01:32:29;21.98;;;13.15;;
80852;SDS011;70270;43.434;28.338;2023-11-22T01:35:14;24.42;;;14.50;;
80852;SDS011;70270;43.434;28.338;2023-11-22T01:37:59;22.17;;;13.77;;
80852;SDS011;70270;43.434;28.338;2023-11-22T01:40:45;28.45;;;14.38;;
80852;SDS011;70270;43.434;28.338;2023-11-22T01:43:32;19.70;;;13.52;;
80852;SDS011;70270;43.434;28.338;2023-11-22T01:46:23;23.63;;;14.15;;
80852;SDS011;70270;43.434;28.338;2023-11-22T01:49:10;26.10;;;14.63;;
80852;SDS011;70270;43.434;28.338;2023-11-22T01:51:55;26.67;;;14.68;;
80852;SDS011;70270;43.434;28.338;2023-11-22T01:54:40;22.73;;;14.57;;
80852;SDS011;70270;43.434;28.338;2023-11-22T01:57:27;24.75;;;14.60;;
80852;SDS011;70270;43.434;28.338;2023-11-22T02:00:11;27.98;;;15.02;;
80852;SDS011;70270;43.434;28.338;2023-11-22T02:02:59;27.70;;;16.42;;
80852;SDS011;70270;43.434;28.338;2023-11-22T02:05:44;26.00;;;15.93;;
80852;SDS011;70270;43.434;28.338;2023-11-22T02:08:29;26.60;;;15.45;;
80852;SDS011;70270;43.434;28.338;2023-11-22T02:11:16;21.30;;;14.35;;
80852;SDS011;70270;43.434;28.338;2023-11-22T02:14:05;25.40;;;16.25;;
80852;SDS011;70270;43.434;28.338;2023-11-22T02:16:51;27.17;;;17.58;;
80852;SDS011;70270;43.434;28.338;2023-11-22T02:19:36;22.98;;;15.30;;
80852;SDS011;70270;43.434;28.338;2023-11-22T02:22:21;26.83;;;15.10;;
80852;SDS011;70270;43.434;28.338;2023-11-22T02:25:05;32.97;;;14.80;;
80852;SDS011;70270;43.434;28.338;2023-11-22T02:27:50;23.25;;;13.30;;
80852;SDS011;70270;43.434;28.338;2023-11-22T02:30:39;21.88;;;13.23;;
80852;SDS011;70270;43.434;28.338;2023-11-22T02:33:23;27.27;;;14.93;;
80852;SDS011;70270;43.434;28.338;2023-11-22T02:36:08;24.15;;;15.43;;
80852;SDS011;70270;43.434;28.338;2023-11-22T02:38:56;31.05;;;13.98;;
80852;SDS011;70270;43.434;28.338;2023-11-22T02:41:41;24.83;;;14.82;;
80852;SDS011;70270;43.434;28.338;2023-11-22T02:44:25;24.73;;;14.40;;
80852;SDS011;70270;43.434;28.338;2023-11-22T02:47:11;25.95;;;13.18;;
80852;SDS011;70270;43.434;28.338;2023-11-22T02:49:55;21.65;;;13.50;;
80852;SDS011;70270;43.434;28.338;2023-11-22T02:52:40;17.48;;;12.55;;
80852;SDS011;70270;43.434;28.338;2023-11-22T02:55:26;23.90;;;13.23;;
80852;SDS011;70270;43.434;28.338;2023-11-22T02:58:10;23.02;;;14.02;;
80852;SDS011;70270;43.434;28.338;2023-11-22T03:00:56;26.08;;;14.20;;
80852;SDS011;70270;43.434;28.338;2023-11-22T03:03:41;24.90;;;13.77;;
80852;SDS011;70270;43.434;28.338;2023-11-22T03:06:26;24.27;;;13.77;;
80852;SDS011;70270;43.434;28.338;2023-11-22T03:09:13;28.48;;;14.15;;
80852;SDS011;70270;43.434;28.338;2023-11-22T03:11:59;20.42;;;12.63;;
80852;SDS011;70270;43.434;28.338;2023-11-22T03:14:44;26.63;;;16.42;;
80852;SDS011;70270;43.434;28.338;2023-11-22T03:17:28;27.13;;;14.55;;
80852;SDS011;70270;43.434;28.338;2023-11-22T03:20:13;25.42;;;13.88;;
80852;SDS011;70270;43.434;28.338;2023-11-22T03:23:00;20.08;;;13.57;;
80852;SDS011;70270;43.434;28.338;2023-11-22T03:25:46;19.02;;;13.57;;
80852;SDS011;70270;43.434;28.338;2023-11-22T03:28:31;33.72;;;14.07;;
80852;SDS011;70270;43.434;28.338;2023-11-22T03:31:17;22.98;;;13.52;;
80852;SDS011;70270;43.434;28.338;2023-11-22T03:34:03;26.50;;;14.68;;
80852;SDS011;70270;43.434;28.338;2023-11-22T03:36:49;23.10;;;12.93;;
80852;SDS011;70270;43.434;28.338;2023-11-22T03:39:34;24.45;;;13.80;;
80852;SDS011;70270;43.434;28.338;2023-11-22T03:42:19;34.05;;;15.23;;
80852;SDS011;70270;43.434;28.338;2023-11-22T03:45:06;25.10;;;13.45;;
80852;SDS011;70270;43.434;28.338;2023-11-22T03:47:51;26.15;;;13.50;;
80852;SDS011;70270;43.434;28.338;2023-11-22T03:50:36;23.23;;;13.13;;
80852;SDS011;70270;43.434;28.338;2023-11-22T03:53:21;22.30;;;13.52;;
80852;SDS011;70270;43.434;28.338;2023-11-22T03:56:06;30.77;;;13.27;;
80852;SDS011;70270;43.434;28.338;2023-11-22T03:58:51;19.83;;;13.02;;
80852;SDS011;70270;43.434;28.338;2023-11-22T04:01:36;22.92;;;14.07;;
80852;SDS011;70270;43.434;28.338;2023-11-22T04:04:21;29.52;;;14.65;;
80852;SDS011;70270;43.434;28.338;2023-11-22T04:07:06;26.77;;;14.23;;
80852;SDS011;70270;43.434;28.338;2023-11-22T04:09:51;24.42;;;14.85;;
80852;SDS011;70270;43.434;28.338;2023-11-22T04:12:36;24.38;;;15.52;;
80852;SDS011;70270;43.434;28.338;2023-11-22T04:15:21;19.23;;;11.95;;
80852;SDS011;70270;43.434;28.338;2023-11-22T04:18:06;19.38;;;12.90;;
80852;SDS011;70270;43.434;28.338;2023-11-22T04:20:53;19.65;;;11.73;;
80852;SDS011;70270;43.434;28.338;2023-11-22T04:23:39;18.58;;;12.77;;
80852;SDS011;70270;43.434;28.338;2023-11-22T04:26:23;19.98;;;11.93;;
80852;SDS011;70270;43.434;28.338;2023-11-22T04:29:08;16.17;;;11.07;;
80852;SDS011;70270;43.434;28.338;2023-11-22T04:31:53;16.65;;;10.73;;
80852;SDS011;70270;43.434;28.338;2023-11-22T04:34:37;22.17;;;12.32;;
80852;SDS011;70270;43.434;28.338;2023-11-22T04:37:22;27.42;;;13.25;;
80852;SDS011;70270;43.434;28.338;2023-11-22T04:40:10;31.80;;;16.25;;
80852;SDS011;70270;43.434;28.338;2023-11-22T04:42:55;93.28;;;39.92;;
80852;SDS011;70270;43.434;28.338;2023-11-22T04:45:39;93.32;;;39.05;;
80852;SDS011;70270;43.434;28.338;2023-11-22T04:48:24;103.03;;;47.83;;
80852;SDS011;70270;43.434;28.338;2023-11-22T04:51:09;73.45;;;31.13;;
80852;SDS011;70270;43.434;28.338;2023-11-22T04:53:54;42.75;;;22.38;;
80852;SDS011;70270;43.434;28.338;2023-11-22T04:56:38;31.65;;;15.43;;
80852;SDS011;70270;43.434;28.338;2023-11-22T04:59:22;29.42;;;16.75;;
80852;SDS011;70270;43.434;28.338;2023-11-22T05:02:07;25.70;;;15.23;;
80852;SDS011;70270;43.434;28.338;2023-11-22T05:04:51;21.10;;;13.43;;
80852;SDS011;70270;43.434;28.338;2023-11-22T05:07:36;20.15;;;12.55;;
80852;SDS011;70270;43.434;28.338;2023-11-22T05:10:21;24.92;;;12.68;;
80852;SDS011;70270;43.434;28.338;2023-11-22T05:13:06;26.70;;;13.90;;
80852;SDS011;70270;43.434;28.338;2023-11-22T05:15:52;18.85;;;10.40;;
80852;SDS011;70270;43.434;28.338;2023-11-22T05:18:37;22.25;;;11.27;;
80852;SDS011;70270;43.434;28.338;2023-11-22T05:21:21;16.15;;;9.38;;
80852;SDS011;70270;43.434;28.338;2023-11-22T05:24:06;17.60;;;10.25;;
80852;SDS011;70270;43.434;28.338;2023-11-22T05:26:51;18.15;;;8.75;;
80852;SDS011;70270;43.434;28.338;2023-11-22T05:29:37;19.02;;;9.90;;
80852;SDS011;70270;43.434;28.338;2023-11-22T05:32:22;14.55;;;10.27;;
80852;SDS011;70270;43.434;28.338;2023-11-22T05:35:07;18.80;;;10.18;;
80852;SDS011;70270;43.434;28.338;2023-11-22T05:37:53;15.88;;;8.93;;
80852;SDS011;70270;43.434;28.338;2023-11-22T05:40:41;19.95;;;10.13;;
80852;SDS011;70270;43.434;28.338;2023-11-22T05:43:26;22.83;;;10.75;;
80852;SDS011;70270;43.434;28.338;2023-11-22T05:46:11;25.52;;;12.85;;
80852;SDS011;70270;43.434;28.338;2023-11-22T05:48:56;22.83;;;11.52;;
80852;SDS011;70270;43.434;28.338;2023-11-22T05:51:41;22.52;;;10.15;;
80852;SDS011;70270;43.434;28.338;2023-11-22T05:54:25;17.83;;;9.95;;
80852;SDS011;70270;43.434;28.338;2023-11-22T05:57:10;20.33;;;10.48;;
80852;SDS011;70270;43.434;28.338;2023-11-22T05:59:54;20.27;;;9.05;;
80852;SDS011;70270;43.434;28.338;2023-11-22T06:02:39;27.48;;;13.32;;
80852;SDS011;70270;43.434;28.338;2023-11-22T06:05:24;30.45;;;15.68;;
80852;SDS011;70270;43.434;28.338;2023-11-22T06:08:09;27.60;;;14.05;;
80852;SDS011;70270;43.434;28.338;2023-11-22T06:10:53;18.58;;;10.35;;
80852;SDS011;70270;43.434;28.338;2023-11-22T06:13:41;15.73;;;8.23;;
80852;SDS011;70270;43.434;28.338;2023-11-22T06:16:32;16.92;;;8.45;;
80852;SDS011;70270;43.434;28.338;2023-11-22T06:19:17;23.90;;;8.82;;
80852;SDS011;70270;43.434;28.338;2023-11-22T06:22:01;18.38;;;9.15;;
80852;SDS011;70270;43.434;28.338;2023-11-22T06:24:46;15.18;;;8.90;;
80852;SDS011;70270;43.434;28.338;2023-11-22T06:27:31;17.33;;;9.68;;
80852;SDS011;70270;43.434;28.338;2023-11-22T06:30:17;16.75;;;9.25;;
80852;SDS011;70270;43.434;28.338;2023-11-22T06:33:01;20.10;;;9.73;;
80852;SDS011;70270;43.434;28.338;2023-11-22T06:35:46;20.27;;;10.07;;
80852;SDS011;70270;43.434;28.338;2023-11-22T06:38:31;23.08;;;10.05;;
80852;SDS011;70270;43.434;28.338;2023-11-22T06:41:15;33.88;;;11.68;;
80852;SDS011;70270;43.434;28.338;2023-11-22T06:44:01;25.35;;;10.32;;
80852;SDS011;70270;43.434;28.338;2023-11-22T06:46:46;27.35;;;10.88;;
80852;SDS011;70270;43.434;28.338;2023-11-22T06:49:31;17.98;;;10.10;;
80852;SDS011;70270;43.434;28.338;2023-11-22T06:52:16;25.33;;;11.10;;
80852;SDS011;70270;43.434;28.338;2023-11-22T06:55:01;20.58;;;10.45;;
80852;SDS011;70270;43.434;28.338;2023-11-22T06:57:45;20.48;;;9.05;;
80852;SDS011;70270;43.434;28.338;2023-11-22T07:00:30;18.42;;;9.13;;
80852;SDS011;70270;43.434;28.338;2023-11-22T07:03:15;35.20;;;11.48;;
80852;SDS011;70270;43.434;28.338;2023-11-22T07:06:00;23.50;;;9.27;;
80852;SDS011;70270;43.434;28.338;2023-11-22T07:08:44;26.95;;;10.05;;
80852;SDS011;70270;43.434;28.338;2023-11-22T07:11:29;22.15;;;12.13;;
80852;SDS011;70270;43.434;28.338;2023-11-22T07:14:15;18.52;;;9.55;;
80852;SDS011;70270;43.434;28.338;2023-11-22T07:17:00;24.65;;;11.15;;
80852;SDS011;70270;43.434;28.338;2023-11-22T07:19:45;25.70;;;13.25;;
80852;SDS011;70270;43.434;28.338;2023-11-22T07:22:30;29.30;;;13.43;;
80852;SDS011;70270;43.434;28.338;2023-11-22T07:25:15;24.05;;;12.27;;
80852;SDS011;70270;43.434;28.338;2023-11-22T07:28:02;32.42;;;13.23;;
80852;SDS011;70270;43.434;28.338;2023-11-22T07:30:47;26.02;;;10.82;;
80852;SDS011;70270;43.434;28.338;2023-11-22T07:33:33;22.15;;;10.10;;
80852;SDS011;70270;43.434;28.338;2023-11-22T07:36:17;16.83;;;8.35;;
80852;SDS011;70270;43.434;28.338;2023-11-22T07:39:02;18.42;;;9.70;;
80852;SDS011;70270;43.434;28.338;2023-11-22T07:41:46;17.75;;;8.43;;
80852;SDS011;70270;43.434;28.338;2023-11-22T07:44:33;17.15;;;9.40;;
80852;SDS011;70270;43.434;28.338;2023-11-22T07:47:22;19.35;;;9.82;;
80852;SDS011;70270;43.434;28.338;2023-11-22T07:50:08;26.90;;;11.77;;
80852;SDS011;70270;43.434;28.338;2023-11-22T07:52:53;27.80;;;13.90;;
80852;SDS011;70270;43.434;28.338;2023-11-22T07:55:38;36.13;;;15.77;;
80852;SDS011;70270;43.434;28.338;2023-11-22T07:58:23;39.95;;;18.50;;
80852;SDS011;70270;43.434;28.338;2023-11-22T08:01:07;34.50;;;16.20;;
80852;SDS011;70270;43.434;28.338;2023-11-22T08:03:57;42.35;;;19.52;;
80852;SDS011;70270;43.434;28.338;2023-11-22T08:06:41;46.67;;;21.17;;
80852;SDS011;70270;43.434;28.338;2023-11-22T08:09:26;44.80;;;19.67;;
80852;SDS011;70270;43.434;28.338;2023-11-22T08:12:16;43.78;;;19.63;;
80852;SDS011;70270;43.434;28.338;2023-11-22T08:15:01;46.35;;;21.17;;
80852;SDS011;70270;43.434;28.338;2023-11-22T08:17:47;43.80;;;21.40;;
80852;SDS011;70270;43.434;28.338;2023-11-22T08:20:31;44.83;;;19.17;;
80852;SDS011;70270;43.434;28.338;2023-11-22T08:23:16;44.58;;;21.63;;
80852;SDS011;70270;43.434;28.338;2023-11-22T08:26:01;48.80;;;21.13;;
80852;SDS011;70270;43.434;28.338;2023-11-22T08:28:46;38.55;;;20.55;;
80852;SDS011;70270;43.434;28.338;2023-11-22T08:31:31;41.20;;;19.92;;
80852;SDS011;70270;43.434;28.338;2023-11-22T08:34:15;45.85;;;20.92;;
80852;SDS011;70270;43.434;28.338;2023-11-22T08:37:00;41.22;;;19.38;;
80852;SDS011;70270;43.434;28.338;2023-11-22T08:39:45;33.40;;;17.08;;
80852;SDS011;70270;43.434;28.338;2023-11-22T08:42:29;29.88;;;15.38;;
80852;SDS011;70270;43.434;28.338;2023-11-22T08:45:15;35.22;;;17.90;;
80852;SDS011;70270;43.434;28.338;2023-11-22T08:48:00;34.25;;;16.27;;
80852;SDS011;70270;43.434;28.338;2023-11-22T08:50:45;35.97;;;15.52;;
80852;SDS011;70270;43.434;28.338;2023-11-22T08:53:31;38.85;;;17.63;;
80852;SDS011;70270;43.434;28.338;2023-11-22T08:56:16;27.60;;;14.88;;
80852;SDS011;70270;43.434;28.338;2023-11-22T08:59:00;29.13;;;14.15;;
80852;SDS011;70270;43.434;28.338;2023-11-22T09:01:45;19.38;;;10.15;;
80852;SDS011;70270;43.434;28.338;2023-11-22T09:04:29;22.00;;;9.27;;
80852;SDS011;70270;43.434;28.338;2023-11-22T09:07:15;14.32;;;7.10;;
80852;SDS011;70270;43.434;28.338;2023-11-22T09:10:00;16.02;;;5.20;;
80852;SDS011;70270;43.434;28.338;2023-11-22T09:12:52;14.25;;;4.57;;
80852;SDS011;70270;43.434;28.338;2023-11-22T09:15:37;13.95;;;5.70;;
80852;SDS011;70270;43.434;28.338;2023-11-22T09:18:22;7.03;;;3.42;;
80852;SDS011;70270;43.434;28.338;2023-11-22T09:21:07;9.07;;;4.35;;
80852;SDS011;70270;43.434;28.338;2023-11-22T09:23:53;9.38;;;4.32;;
80852;SDS011;70270;43.434;28.338;2023-11-22T09:26:38;9.43;;;4.00;;
80852;SDS011;70270;43.434;28.338;2023-11-22T09:29:22;8.48;;;4.30;;
80852;SDS011;70270;43.434;28.338;2023-11-22T09:32:07;13.63;;;4.45;;
80852;SDS011;70270;43.434;28.338;2023-11-22T09:34:51;12.98;;;4.35;;
80852;SDS011;70270;43.434;28.338;2023-11-22T09:37:41;11.77;;;4.05;;
80852;SDS011;70270;43.434;28.338;2023-11-22T09:40:26;13.15;;;4.90;;
80852;SDS011;70270;43.434;28.338;2023-11-22T09:43:17;11.52;;;4.28;;
80852;SDS011;70270;43.434;28.338;2023-11-22T09:46:04;14.60;;;3.78;;
80852;SDS011;70270;43.434;28.338;2023-11-22T09:48:49;12.63;;;4.15;;
80852;SDS011;70270;43.434;28.338;2023-11-22T09:51:36;9.45;;;2.88;;
80852;SDS011;70270;43.434;28.338;2023-11-22T09:54:22;9.63;;;3.63;;
80852;SDS011;70270;43.434;28.338;2023-11-22T09:57:13;7.38;;;3.40;;
80852;SDS011;70270;43.434;28.338;2023-11-22T10:00:00;9.98;;;3.92;;
80852;SDS011;70270;43.434;28.338;2023-11-22T10:02:53;9.25;;;3.17;;
80852;SDS011;70270;43.434;28.338;2023-11-22T10:05:39;7.20;;;3.58;;
80852;SDS011;70270;43.434;28.338;2023-11-22T10:08:26;12.98;;;3.58;;
80852;SDS011;70270;43.434;28.338;2023-11-22T10:11:17;11.30;;;4.07;;
80852;SDS011;70270;43.434;28.338;2023-11-22T10:14:02;10.98;;;3.97;;
80852;SDS011;70270;43.434;28.338;2023-11-22T10:16:57;11.48;;;4.13;;
80852;SDS011;70270;43.434;28.338;2023-11-22T10:19:43;15.93;;;4.18;;
80852;SDS011;70270;43.434;28.338;2023-11-22T10:22:27;8.35;;;3.45;;
80852;SDS011;70270;43.434;28.338;2023-11-22T10:25:12;11.40;;;4.70;;
80852;SDS011;70270;43.434;28.338;2023-11-22T10:27:57;18.48;;;4.00;;
80852;SDS011;70270;43.434;28.338;2023-11-22T10:30:42;8.70;;;3.50;;
80852;SDS011;70270;43.434;28.338;2023-11-22T10:33:28;15.98;;;4.45;;
80852;SDS011;70270;43.434;28.338;2023-11-22T10:36:14;8.70;;;4.35;;
80852;SDS011;70270;43.434;28.338;2023-11-22T10:38:59;13.73;;;4.15;;
80852;SDS011;70270;43.434;28.338;2023-11-22T10:41:43;11.98;;;3.88;;
80852;SDS011;70270;43.434;28.338;2023-11-22T10:47:14;12.32;;;3.63;;
80852;SDS011;70270;43.434;28.338;2023-11-22T10:50:01;19.15;;;4.50;;
80852;SDS011;70270;43.434;28.338;2023-11-22T10:52:45;12.45;;;4.43;;
80852;SDS011;70270;43.434;28.338;2023-11-22T10:55:37;18.13;;;5.32;;
80852;SDS011;70270;43.434;28.338;2023-11-22T10:58:28;16.80;;;4.07;;
80852;SDS011;70270;43.434;28.338;2023-11-22T11:01:16;13.25;;;4.70;;
80852;SDS011;70270;43.434;28.338;2023-11-22T11:04:08;13.95;;;4.50;;
80852;SDS011;70270;43.434;28.338;2023-11-22T11:06:56;14.65;;;4.35;;
80852;SDS011;70270;43.434;28.338;2023-11-22T11:09:42;9.88;;;3.60;;
80852;SDS011;70270;43.434;28.338;2023-11-22T11:12:30;12.50;;;3.78;;
80852;SDS011;70270;43.434;28.338;2023-11-22T11:15:15;8.50;;;3.92;;
80852;SDS011;70270;43.434;28.338;2023-11-22T11:18:01;11.63;;;3.35;;
80852;SDS011;70270;43.434;28.338;2023-11-22T11:20:52;8.93;;;3.42;;
80852;SDS011;70270;43.434;28.338;2023-11-22T11:23:39;8.90;;;3.75;;
80852;SDS011;70270;43.434;28.338;2023-11-22T11:26:25;12.55;;;3.65;;
80852;SDS011;70270;43.434;28.338;2023-11-22T11:29:09;13.35;;;4.03;;
80852;SDS011;70270;43.434;28.338;2023-11-22T11:32:32;6.53;;;3.00;;
80852;SDS011;70270;43.434;28.338;2023-11-22T11:35:17;10.05;;;3.28;;
80852;SDS011;70270;43.434;28.338;2023-11-22T11:38:02;12.68;;;4.18;;
80852;SDS011;70270;43.434;28.338;2023-11-22T11:40:48;9.52;;;3.65;;
80852;SDS011;70270;43.434;28.338;2023-11-22T11:43:44;17.50;;;4.05;;
80852;SDS011;70270;43.434;28.338;2023-11-22T11:46:32;9.32;;;4.30;;
80852;SDS011;70270;43.434;28.338;2023-11-22T11:49:17;23.42;;;5.38;;
80852;SDS011;70270;43.434;28.338;2023-11-22T11:52:02;12.65;;;4.15;;
80852;SDS011;70270;43.434;28.338;2023-11-22T11:54:47;9.38;;;2.97;;
80852;SDS011;70270;43.434;28.338;2023-11-22T11:57:32;15.25;;;4.15;;
80852;SDS011;70270;43.434;28.338;2023-11-22T12:00:17;11.38;;;3.25;;
80852;SDS011;70270;43.434;28.338;2023-11-22T12:03:03;18.25;;;4.00;;
80852;SDS011;70270;43.434;28.338;2023-11-22T12:05:48;14.48;;;4.15;;
80852;SDS011;70270;43.434;28.338;2023-11-22T12:08:35;9.48;;;2.58;;
80852;SDS011;70270;43.434;28.338;2023-11-22T12:11:20;9.98;;;4.10;;
80852;SDS011;70270;43.434;28.338;2023-11-22T12:14:05;14.02;;;5.47;;
80852;SDS011;70270;43.434;28.338;2023-11-22T12:16:50;11.25;;;4.43;;
80852;SDS011;70270;43.434;28.338;2023-11-22T12:19:36;12.15;;;4.53;;
80852;SDS011;70270;43.434;28.338;2023-11-22T12:22:20;7.70;;;3.10;;
80852;SDS011;70270;43.434;28.338;2023-11-22T12:25:05;7.57;;;3.03;;
80852;SDS011;70270;43.434;28.338;2023-11-22T12:27:53;13.50;;;3.53;;
80852;SDS011;70270;43.434;28.338;2023-11-22T12:30:39;10.00;;;3.25;;
80852;SDS011;70270;43.434;28.338;2023-11-22T12:33:28;6.65;;;3.40;;
80852;SDS011;70270;43.434;28.338;2023-11-22T12:36:13;6.53;;;3.60;;
80852;SDS011;70270;43.434;28.338;2023-11-22T12:41:52;8.05;;;3.20;;
80852;SDS011;70270;43.434;28.338;2023-11-22T12:44:48;10.25;;;4.07;;
80852;SDS011;70270;43.434;28.338;2023-11-22T12:47:34;9.57;;;4.25;;
80852;SDS011;70270;43.434;28.338;2023-11-22T12:50:31;13.77;;;5.05;;
80852;SDS011;70270;43.434;28.338;2023-11-22T12:53:19;8.05;;;4.35;;
80852;SDS011;70270;43.434;28.338;2023-11-22T12:56:08;11.93;;;4.90;;
80852;SDS011;70270;43.434;28.338;2023-11-22T12:58:53;9.63;;;5.15;;
80852;SDS011;70270;43.434;28.338;2023-11-22T13:01:38;17.38;;;6.72;;
80852;SDS011;70270;43.434;28.338;2023-11-22T13:04:23;10.13;;;5.25;;
80852;SDS011;70270;43.434;28.338;2023-11-22T13:07:07;10.75;;;4.53;;
80852;SDS011;70270;43.434;28.338;2023-11-22T13:09:51;21.70;;;6.35;;
80852;SDS011;70270;43.434;28.338;2023-11-22T13:12:36;14.32;;;5.88;;
80852;SDS011;70270;43.434;28.338;2023-11-22T13:15:20;12.52;;;5.35;;
80852;SDS011;70270;43.434;28.338;2023-11-22T13:18:10;9.57;;;4.30;;
80852;SDS011;70270;43.434;28.338;2023-11-22T13:20:54;6.53;;;4.18;;
80852;SDS011;70270;43.434;28.338;2023-11-22T13:23:39;11.00;;;6.40;;
80852;SDS011;70270;43.434;28.338;2023-11-22T13:26:23;6.55;;;4.03;;
80852;SDS011;70270;43.434;28.338;2023-11-22T13:29:08;6.72;;;3.92;;
80852;SDS011;70270;43.434;28.338;2023-11-22T13:31:52;13.07;;;4.70;;
80852;SDS011;70270;43.434;28.338;2023-11-22T13:34:37;9.38;;;5.10;;
80852;SDS011;70270;43.434;28.338;2023-11-22T13:37:22;7.10;;;4.68;;
80852;SDS011;70270;43.434;28.338;2023-11-22T13:40:13;6.43;;;4.13;;
80852;SDS011;70270;43.434;28.338;2023-11-22T13:42:59;6.82;;;4.57;;
80852;SDS011;70270;43.434;28.338;2023-11-22T13:45:44;9.55;;;4.88;;
80852;SDS011;70270;43.434;28.338;2023-11-22T13:48:29;6.05;;;4.35;;
80852;SDS011;70270;43.434;28.338;2023-11-22T13:51:14;9.18;;;5.20;;
80852;SDS011;70270;43.434;28.338;2023-11-22T13:53:58;6.57;;;4.82;;
80852;SDS011;70270;43.434;28.338;2023-11-22T13:56:43;7.97;;;4.70;;
80852;SDS011;70270;43.434;28.338;2023-11-22T13:59:29;6.85;;;4.78;;
80852;SDS011;70270;43.434;28.338;2023-11-22T14:02:13;11.30;;;5.07;;
80852;SDS011;70270;43.434;28.338;2023-11-22T14:04:58;9.10;;;6.00;;
80852;SDS011;70270;43.434;28.338;2023-11-22T14:07:43;6.18;;;5.40;;
80852;SDS011;70270;43.434;28.338;2023-11-22T14:10:28;7.10;;;5.85;;
80852;SDS011;70270;43.434;28.338;2023-11-22T14:13:13;7.30;;;5.60;;
80852;SDS011;70270;43.434;28.338;2023-11-22T14:15:57;8.77;;;6.53;;
80852;SDS011;70270;43.434;28.338;2023-11-22T14:18:42;7.53;;;5.55;;
80852;SDS011;70270;43.434;28.338;2023-11-22T14:21:27;6.25;;;5.65;;
80852;SDS011;70270;43.434;28.338;2023-11-22T14:24:12;11.48;;;5.82;;
80852;SDS011;70270;43.434;28.338;2023-11-22T14:30:07;7.55;;;6.38;;
80852;SDS011;70270;43.434;28.338;2023-11-22T14:32:54;9.25;;;7.88;;
80852;SDS011;70270;43.434;28.338;2023-11-22T14:35:39;11.80;;;6.88;;
80852;SDS011;70270;43.434;28.338;2023-11-22T14:38:23;7.43;;;6.60;;
80852;SDS011;70270;43.434;28.338;2023-11-22T14:41:09;12.02;;;7.70;;
80852;SDS011;70270;43.434;28.338;2023-11-22T14:43:56;12.85;;;9.05;;
80852;SDS011;70270;43.434;28.338;2023-11-22T14:46:40;12.88;;;7.88;;
80852;SDS011;70270;43.434;28.338;2023-11-22T14:49:26;11.00;;;8.35;;
80852;SDS011;70270;43.434;28.338;2023-11-22T14:52:11;10.05;;;8.45;;
80852;SDS011;70270;43.434;28.338;2023-11-22T14:54:56;10.93;;;8.93;;
80852;SDS011;70270;43.434;28.338;2023-11-22T14:57:44;18.30;;;11.68;;
80852;SDS011;70270;43.434;28.338;2023-11-22T15:00:28;19.23;;;12.57;;
80852;SDS011;70270;43.434;28.338;2023-11-22T15:03:13;18.95;;;13.02;;
80852;SDS011;70270;43.434;28.338;2023-11-22T15:05:58;22.30;;;13.93;;
80852;SDS011;70270;43.434;28.338;2023-11-22T15:08:42;23.17;;;14.85;;
80852;SDS011;70270;43.434;28.338;2023-11-22T15:11:27;26.48;;;16.58;;
80852;SDS011;70270;43.434;28.338;2023-11-22T15:14:12;21.98;;;15.23;;
80852;SDS011;70270;43.434;28.338;2023-11-22T15:16:56;18.55;;;13.90;;
80852;SDS011;70270;43.434;28.338;2023-11-22T15:19:41;23.40;;;15.45;;
80852;SDS011;70270;43.434;28.338;2023-11-22T15:22:27;26.58;;;16.70;;
80852;SDS011;70270;43.434;28.338;2023-11-22T15:25:12;27.00;;;17.38;;
80852;SDS011;70270;43.434;28.338;2023-11-22T15:27:59;27.80;;;16.45;;
80852;SDS011;70270;43.434;28.338;2023-11-22T15:30:44;27.88;;;17.05;;
80852;SDS011;70270;43.434;28.338;2023-11-22T15:33:29;27.15;;;16.15;;
80852;SDS011;70270;43.434;28.338;2023-11-22T15:36:13;32.80;;;17.52;;
80852;SDS011;70270;43.434;28.338;2023-11-22T15:38:57;25.40;;;16.45;;
80852;SDS011;70270;43.434;28.338;2023-11-22T15:41:42;28.40;;;16.48;;
80852;SDS011;70270;43.434;28.338;2023-11-22T15:44:27;32.60;;;15.65;;
80852;SDS011;70270;43.434;28.338;2023-11-22T15:47:13;23.92;;;16.00;;
80852;SDS011;70270;43.434;28.338;2023-11-22T15:49:57;24.42;;;15.10;;
80852;SDS011;70270;43.434;28.338;2023-11-22T15:52:42;26.67;;;15.48;;
80852;SDS011;70270;43.434;28.338;2023-11-22T15:55:28;32.90;;;19.92;;
80852;SDS011;70270;43.434;28.338;2023-11-22T15:58:12;154.98;;;81.80;;
80852;SDS011;70270;43.434;28.338;2023-11-22T16:00:57;34.70;;;19.50;;
80852;SDS011;70270;43.434;28.338;2023-11-22T16:03:42;32.83;;;18.42;;
80852;SDS011;70270;43.434;28.338;2023-11-22T16:06:26;29.75;;;17.15;;
80852;SDS011;70270;43.434;28.338;2023-11-22T16:09:11;29.27;;;17.73;;
80852;SDS011;70270;43.434;28.338;2023-11-22T16:11:57;30.60;;;17.52;;